Nuuk, Greenland

12:58 AM WGT on February 06, 2016 (GMT -0300)
Nuuk | | Change Station
CLOSE
Current Station
Airport
Location: Nuuk,
Elevation: 282 ft
Nearby Weather Stations

Elev 282 ft 64.19 °N, 51.68 °W | Updated 8 minutes ago

Overcast
Overcast
19 °F
Feels Like 10 °F
N
7
Wind Variable Wind from North

Today
High -- | Low -- °F
--% Chance of Precip.
Yesterday
High -- | Low -- °F
Precip. -- in
Pressure 29.59 in
Visibility 6.2 miles
Clouds Overcast 1500 ft
Windchill 10 °F
Dew Point 16 °F
Humidity 86%
Rainfall 0.00 in
Snow Depth Not available.
8:53 AM 4:29 PM
Waning Crescent, 8% visible
METAR BGGH 060350Z 36006KT 300V050 9999 OVC015 M07/M09 Q1002
Pressure 29.59 in
Visibility 6.2 miles
Clouds Overcast 1500 ft
Windchill 10 °F
Dew Point 16 °F
Humidity 86%
Rainfall 0.00 in
Snow Depth Not available.
8:53 AM 4:29 PM
Waning Crescent, 8% visible
METAR BGGH 060350Z 36006KT 300V050 9999 OVC015 M07/M09 Q1002

10-Day Weather Forecast

Almanac

Astronomy

Feb. 06, 2016 Rise Set
Actual Time
Civil Twilight
Nautical Twilight
Astronomical Twilight
Moon
Length of Visible Light
Length of Day
Tomorrow will be .
, % of the Moon is Illuminated

Today's Extremes

Country Highs Country Lows

Community

WunderPhotos

Upload Photos

1,890,922 photos uploaded!

WunderBlog® & News

Nearby

Air Quality

  Air Quality AQ Index Pollutant
Not available.

Snow Depth

Station Depth Elevation

Earthquake Activity

City Distance Mag. Time & Date
Minimum magnitude displayed is 2.5.

Coastal Water Temperatures

Place Temperature

Stations

Nearby Weather Stations

Station Location Temp. Windchill Dew Point Humidity Wind Precip. Elev Updated Type